createdAt,value
2019-02-14T00:03:16.832Z,-1.10
2019-02-14T00:08:24.073Z,-1.20
2019-02-14T00:13:31.735Z,-1.20
2019-02-14T00:18:40.847Z,-1.20
2019-02-14T00:23:48.180Z,-1.20
2019-02-14T00:28:54.891Z,-1.30
2019-02-14T00:34:01.874Z,-1.10
2019-02-14T00:39:10.061Z,-1.10
2019-02-14T00:44:16.074Z,-1.10
2019-02-14T00:49:22.294Z,-1.20
2019-02-14T00:54:28.503Z,-1.30
2019-02-14T00:59:34.651Z,-1.30
2019-02-14T01:04:40.768Z,-1.30
2019-02-14T01:09:47.016Z,-1.30
2019-02-14T01:14:54.506Z,-1.40
2019-02-14T01:20:01.182Z,-1.40
2019-02-14T01:25:07.424Z,-1.30
2019-02-14T01:30:15.482Z,-1.30
2019-02-14T01:35:21.978Z,-1.50
2019-02-14T01:40:28.167Z,-1.50
2019-02-14T01:45:35.390Z,-1.60
2019-02-14T01:50:41.703Z,-1.60
2019-02-14T01:55:48.680Z,-1.60
2019-02-14T02:00:55.213Z,-1.80
2019-02-14T02:06:01.191Z,-1.80
2019-02-14T02:11:09.423Z,-1.70
2019-02-14T02:16:16.636Z,-1.80
2019-02-14T02:21:24.047Z,-1.70
2019-02-14T02:26:31.123Z,-1.60
2019-02-14T02:31:37.354Z,-1.60
2019-02-14T02:36:44.499Z,-1.40
2019-02-14T02:41:50.765Z,-1.40
2019-02-14T02:46:59.499Z,-1.40
2019-02-14T02:52:07.097Z,-1.40
2019-02-14T02:57:13.790Z,-1.30
2019-02-14T03:02:20.788Z,-1.30
2019-02-14T03:07:27.987Z,-1.30
2019-02-14T03:12:34.870Z,-1.60
2019-02-14T03:17:41.482Z,-1.60
2019-02-14T03:22:48.804Z,-1.70
2019-02-14T03:27:56.061Z,-1.70
2019-02-14T03:33:03.350Z,-1.80
2019-02-14T03:38:11.096Z,-1.80
2019-02-14T03:43:17.052Z,-1.70
2019-02-14T03:48:23.335Z,-1.80
2019-02-14T03:53:29.986Z,-2.00
2019-02-14T03:58:37.040Z,-2.00
2019-02-14T04:03:44.327Z,-2.10
2019-02-14T04:08:51.641Z,-2.10
2019-02-14T04:13:58.597Z,-2.10
2019-02-14T04:19:06.003Z,-2.10
2019-02-14T04:24:12.572Z,-2.20
2019-02-14T04:29:19.018Z,-2.10
2019-02-14T04:34:26.890Z,-2.10
2019-02-14T04:39:33.797Z,-2.10
2019-02-14T04:44:40.963Z,-2.20
2019-02-14T04:49:47.083Z,-2.10
2019-02-14T04:54:54.968Z,-2.10
2019-02-14T05:00:01.047Z,-2.10
2019-02-14T05:05:08.383Z,-2.20
2019-02-14T05:10:15.756Z,-2.20
2019-02-14T05:15:23.594Z,-2.10
2019-02-14T05:20:32.116Z,-2.10
2019-02-14T05:25:39.715Z,-2.10
2019-02-14T05:30:47.169Z,-2.20
2019-02-14T05:35:55.285Z,-2.20
2019-02-14T05:41:01.558Z,-2.20
2019-02-14T05:46:07.925Z,-2.20
2019-02-14T05:51:13.837Z,-2.20
2019-02-14T05:56:20.203Z,-2.20
2019-02-14T06:01:27.543Z,-2.30
2019-02-14T06:06:39.728Z,-2.20
2019-02-14T06:11:47.231Z,-2.20
2019-02-14T06:16:54.581Z,-2.20
2019-02-14T06:22:01.735Z,-2.40
2019-02-14T06:27:09.963Z,-2.50
2019-02-14T06:32:19.943Z,-2.50
2019-02-14T06:37:26.525Z,-2.50
2019-02-14T06:42:32.444Z,-2.50
2019-02-14T06:47:41.456Z,-2.50
2019-02-14T06:52:49.161Z,-2.50
2019-02-14T06:58:00.310Z,-2.30
2019-02-14T07:03:09.631Z,-2.30
2019-02-14T07:08:15.326Z,-2.10
2019-02-14T07:13:22.435Z,-1.90
2019-02-14T07:18:30.357Z,-1.70
2019-02-14T07:23:36.520Z,-1.50
2019-02-14T07:28:44.244Z,-1.40
2019-02-14T07:33:51.219Z,-1.30
2019-02-14T07:38:57.607Z,-1.10
2019-02-14T07:44:05.118Z,-1.00
2019-02-14T07:49:11.145Z,-0.90
2019-02-14T07:54:17.049Z,-0.80
2019-02-14T07:59:23.525Z,-0.60
2019-02-14T08:04:31.887Z,-0.40
2019-02-14T08:09:40.397Z,-0.20
2019-02-14T08:14:47.436Z,0.10
2019-02-14T08:19:57.078Z,0.30
2019-02-14T08:25:04.616Z,0.50
2019-02-14T08:30:12.669Z,0.70
2019-02-14T08:35:19.398Z,1.10
2019-02-14T08:40:26.058Z,1.50
2019-02-14T08:45:34.285Z,1.90
2019-02-14T08:50:41.143Z,2.10
2019-02-14T08:55:51.552Z,2.10
2019-02-14T09:00:57.402Z,2.30
2019-02-14T09:06:03.342Z,2.50
2019-02-14T09:11:09.321Z,2.50
2019-02-14T09:16:15.606Z,2.60
2019-02-14T09:21:23.110Z,2.60
2019-02-14T09:26:29.586Z,2.50
2019-02-14T09:31:38.100Z,2.70
2019-02-14T09:36:45.817Z,2.90
2019-02-14T09:41:51.741Z,2.90
2019-02-14T09:46:58.502Z,3.10
2019-02-14T09:52:05.283Z,3.20
2019-02-14T09:57:12.761Z,3.30
2019-02-14T10:02:22.648Z,3.50
2019-02-14T10:07:29.418Z,3.70
2019-02-14T10:12:36.727Z,3.70
2019-02-14T10:17:42.976Z,3.80
2019-02-14T10:22:50.220Z,4.00
2019-02-14T10:27:56.155Z,4.00
2019-02-14T10:33:04.675Z,4.30
2019-02-14T10:38:10.607Z,4.70
2019-02-14T10:43:17.040Z,4.80
2019-02-14T10:48:24.925Z,5.10
2019-02-14T10:53:31.824Z,6.20
2019-02-14T10:58:40.488Z,8.10
2019-02-14T11:03:49.037Z,9.00
2019-02-14T11:08:56.313Z,9.80
2019-02-14T11:14:03.787Z,10.40
2019-02-14T11:19:09.589Z,12.00
2019-02-14T11:24:27.712Z,12.70
2019-02-14T11:29:44.023Z,11.80
2019-02-14T11:34:50.478Z,13.20
2019-02-14T11:40:00.548Z,14.80
2019-02-14T11:45:10.137Z,13.10
2019-02-14T11:50:16.254Z,14.10
2019-02-14T11:55:22.630Z,14.20
2019-02-14T12:00:28.586Z,15.90
2019-02-14T12:05:35.019Z,17.10
2019-02-14T12:10:42.588Z,15.50
2019-02-14T12:15:57.362Z,15.50
2019-02-14T12:21:03.630Z,16.50
2019-02-14T12:26:10.806Z,17.40
2019-02-14T12:31:18.706Z,18.40
2019-02-14T12:36:24.961Z,17.70
2019-02-14T12:41:35.465Z,17.70
2019-02-14T12:46:43.461Z,17.60
2019-02-14T12:51:51.094Z,16.70
2019-02-14T12:57:00.285Z,18.10
2019-02-14T13:02:07.515Z,17.40
2019-02-14T13:07:13.828Z,15.30
2019-02-14T13:12:21.032Z,12.60
2019-02-14T13:17:28.818Z,11.20
2019-02-14T13:22:36.353Z,10.90
2019-02-14T13:27:45.005Z,10.30
2019-02-14T13:32:52.850Z,9.90
2019-02-14T13:37:58.964Z,9.90
2019-02-14T13:43:05.815Z,9.40
2019-02-14T13:48:12.473Z,9.30
2019-02-14T13:53:19.984Z,8.90
2019-02-14T13:58:26.960Z,8.50
2019-02-14T14:03:34.141Z,8.30
2019-02-14T14:08:41.222Z,8.10
2019-02-14T14:13:47.535Z,8.10
2019-02-14T14:18:54.564Z,8.10
2019-02-14T14:24:00.736Z,8.20
2019-02-14T14:29:09.075Z,8.30
2019-02-14T14:34:15.467Z,8.70
2019-02-14T14:39:21.652Z,9.20
2019-02-14T14:44:38.125Z,9.30
2019-02-14T14:49:45.462Z,9.40
2019-02-14T14:54:53.303Z,9.20
2019-02-14T14:59:59.428Z,9.30
2019-02-14T15:05:05.913Z,9.30
2019-02-14T15:10:12.116Z,8.90
2019-02-14T15:15:18.307Z,8.50
2019-02-14T15:20:24.402Z,8.30
2019-02-14T15:25:30.764Z,8.20
2019-02-14T15:30:37.749Z,7.90
2019-02-14T15:35:44.254Z,7.60
2019-02-14T15:40:51.179Z,7.50
2019-02-14T15:45:57.961Z,7.30
2019-02-14T15:51:06.070Z,7.10
2019-02-14T15:56:12.338Z,6.70
2019-02-14T16:01:19.368Z,6.50
2019-02-14T16:06:28.340Z,6.30
2019-02-14T16:11:57.755Z,5.90
2019-02-14T16:17:06.650Z,5.60
2019-02-14T16:22:19.532Z,5.40
2019-02-14T16:27:27.670Z,5.20
2019-02-14T16:32:34.968Z,5.00
2019-02-14T16:37:41.039Z,4.80
2019-02-14T16:43:06.881Z,4.70
2019-02-14T16:48:13.682Z,4.50
2019-02-14T16:53:21.760Z,4.30
2019-02-14T16:58:28.139Z,4.20
2019-02-14T17:03:35.999Z,4.00
2019-02-14T17:08:44.630Z,4.00
2019-02-14T17:13:53.855Z,3.70
2019-02-14T17:19:02.403Z,3.50
2019-02-14T17:24:09.016Z,3.30
2019-02-14T17:29:15.660Z,3.20
2019-02-14T17:34:23.070Z,3.10
2019-02-14T17:39:31.051Z,2.90
2019-02-14T17:44:38.411Z,2.80
2019-02-14T17:49:46.341Z,2.70
2019-02-14T17:54:53.986Z,2.60
2019-02-14T18:00:01.524Z,2.40
2019-02-14T18:05:08.799Z,2.30
2019-02-14T18:10:14.672Z,2.20
2019-02-14T18:15:20.825Z,2.10
2019-02-14T18:20:28.043Z,2.10
2019-02-14T18:25:36.667Z,2.10
2019-02-14T18:30:43.129Z,2.20
2019-02-14T18:35:49.768Z,2.20
2019-02-14T18:41:04.184Z,2.10
2019-02-14T18:46:07.013Z,2.00
2019-02-14T18:51:13.735Z,2.00
2019-02-14T18:56:20.009Z,1.90
2019-02-14T19:01:27.310Z,1.80
2019-02-14T19:06:36.138Z,1.70
2019-02-14T19:11:44.073Z,1.60
2019-02-14T19:16:50.198Z,1.60
2019-02-14T19:21:56.607Z,1.60
2019-02-14T19:27:03.679Z,1.60
2019-02-14T19:32:11.095Z,1.60
2019-02-14T19:37:18.755Z,1.60
2019-02-14T19:42:26.111Z,1.70
2019-02-14T19:47:34.171Z,1.70
2019-02-14T19:52:42.174Z,1.50
2019-02-14T19:57:49.947Z,1.40
2019-02-14T20:02:56.572Z,1.60
2019-02-14T20:08:11.041Z,1.60
2019-02-14T20:13:22.573Z,1.40
2019-02-14T20:18:30.458Z,1.10
2019-02-14T20:23:57.071Z,1.00
2019-02-14T20:29:03.871Z,1.00
2019-02-14T20:34:11.059Z,0.80
2019-02-14T20:39:20.191Z,0.80
2019-02-14T20:44:28.514Z,1.00
2019-02-14T20:49:35.419Z,0.90
2019-02-14T20:54:42.310Z,0.70
2019-02-14T20:59:49.860Z,0.90
2019-02-14T21:04:56.268Z,0.90
2019-02-14T21:10:03.690Z,0.80
2019-02-14T21:15:11.069Z,0.70
2019-02-14T21:20:18.009Z,0.60
2019-02-14T21:25:24.332Z,0.60
2019-02-14T21:30:35.233Z,0.70
2019-02-14T21:35:38.642Z,0.70
2019-02-14T21:40:46.398Z,0.50
2019-02-14T21:45:53.978Z,0.50
2019-02-14T21:51:01.004Z,0.50
2019-02-14T21:56:07.945Z,0.70
2019-02-14T22:01:15.728Z,0.70
2019-02-14T22:06:23.496Z,0.60
2019-02-14T22:11:33.877Z,0.40
2019-02-14T22:16:38.668Z,0.40
2019-02-14T22:21:45.527Z,0.30
2019-02-14T22:26:51.325Z,0.30
2019-02-14T22:31:57.847Z,0.00
2019-02-14T22:37:05.045Z,-0.20
2019-02-14T22:42:11.962Z,-0.20
2019-02-14T22:47:18.928Z,-0.20
2019-02-14T22:52:26.857Z,0.10
2019-02-14T22:57:33.326Z,0.00
2019-02-14T23:02:40.629Z,0.00
2019-02-14T23:07:46.841Z,0.00
2019-02-14T23:12:55.673Z,-0.10
2019-02-14T23:18:03.921Z,-0.10
2019-02-14T23:23:10.336Z,-0.30
2019-02-14T23:28:17.995Z,-0.30
2019-02-14T23:33:25.852Z,-0.40
2019-02-14T23:38:33.725Z,-0.60
2019-02-14T23:43:39.758Z,-0.60
2019-02-14T23:48:47.358Z,-0.40
2019-02-14T23:53:53.582Z,-0.30
2019-02-14T23:59:01.139Z,0.10
